This is the latest recevied weather packets stored in our database for station/object WE1C. If no packets are shown the sender has not sent any weather packets the latest 10 day(s).
| Time | Temp. | Humidity | Pressure | Rain* | Wind** | Luminosity | Snow |
|---|---|---|---|---|---|---|---|
| 1777898147 | 12.78° C | 48% | 1040 hPa | 0 mm | - | 377 W/m² | - |
| 1777897844 | 12.22° C | 49% | 1040 hPa | 0 mm | - | 362 W/m² | - |
| 1777897540 | 11.67° C | 49% | 1040.2 hPa | 0 mm | - | 339 W/m² | - |
| 1777897235 | 11.67° C | 50% | 1040 hPa | 0 mm | - | 99 W/m² | - |
| 1777896932 | 11.67° C | 51% | 1040.1 hPa | 0 mm | - | 305 W/m² | - |
| 1777896629 | 11.67° C | 52% | 1040.2 hPa | 0 mm | - | 287 W/m² | - |
| 1777896326 | 11.11° C | 52% | 1040.1 hPa | 0 mm | - | 95 W/m² | - |
| 1777896024 | 10.56° C | 52% | 1040.3 hPa | 0 mm | - | 250 W/m² | - |
| 1777895722 | 10.56° C | 53% | 1040.2 hPa | 0 mm | - | 244 W/m² | - |
| 1777895419 | 10° C | 53% | 1040 hPa | 0 mm | - | 220 W/m² | - |
| 1777895116 | 9.44° C | 55% | 1040.4 hPa | 0 mm | - | 212 W/m² | - |
| 1777894814 | 8.89° C | 57% | 1040.2 hPa | 0 mm | - | 177 W/m² | - |
| 1777894510 | 8.89° C | 56% | 1040.2 hPa | 0 mm | - | 69 W/m² | - |
| 1777894208 | 8.89° C | 56% | 1040.2 hPa | 0 mm | - | 61 W/m² | - |
| 1777893904 | 8.89° C | 56% | 1040.2 hPa | 0 mm | - | 53 W/m² | - |
| 1777893601 | 8.89° C | 55% | 1040 hPa | 0 mm | - | 46 W/m² | - |
| 1777893297 | 8.89° C | 55% | 1040 hPa | 0 mm | - | 51 W/m² | - |
| 1777892993 | 9.44° C | 54% | 1039.7 hPa | 0 mm | - | 47 W/m² | - |
| 1777892691 | 8.89° C | 56% | 1039.8 hPa | 0 mm | - | 73 W/m² | - |
| 1777892386 | 8.33° C | 60% | 1040.1 hPa | 0 mm | - | 113 W/m² | - |
| 1777892082 | 7.78° C | 61% | 1039.9 hPa | 0 mm | - | 66 W/m² | - |
| 1777891780 | 7.22° C | 62% | 1040.1 hPa | 0 mm | - | 49 W/m² | - |
| 1777891477 | 6.67° C | 64% | 1039.9 hPa | 0 mm | - | 42 W/m² | - |
| 1777891173 | 6.11° C | 64% | 1039.9 hPa | 0 mm | - | 39 W/m² | - |
| 1777890872 | 5.56° C | 67% | 1039.9 hPa | 0 mm | - | 35 W/m² | - |
* Rain latest hour (hover to see other rain measurements)
** Current wind speed in m/s (hover to see current wind gust speed)